»·PEaware :: FDX4850 KABQ-KBLH

FDX4850 :: KABQ-KBLH

FLIGHT INFORMATION

Flight Status: Arrived
Operator:
Federal Express
More flights by this operator :: More flights under this callsign
Pilot: Drew L. (13237)
Aircraft: BOEING 757-200
(B752)
More flights by this aircraft type
Origin: KABQ Albuquerque Intl Sunport
United States
Destination: KBLH Blythe
United States
More flights between these airports :: More routes between these airports
Route: +MNZNO3 SJN HOZER V190 PXR BXK V16 VICKO BLH
File this flight plan on PilotEdge
Remarks: PBN / A1B3B4B5C4D4O4 DOF / 171223 REG / N537SB EET / KZLA0108 OPR / FDX PER / D RMK / TCAS SIMBRIEF
Altitude:
(Current/Filed)
36,000ft
Speed:
(Current/Filed)
457kts
Departed: 23-Dec-17 01:38 PM
Arrived: 23-Dec-17 02:52 PM
Distance/Time
Traveled:
410nm/1:14
Distance/Time
To Go:
Arrived

Flight Plot

Page will automatically refresh every two minutes.

Flight plan parsing failed; only flown route is shown


Map Options




Map Legend


Flown Route
Filed Route
Departure Airport
Arrival Airport
Navaid (VOR, NDB)
Fix

Horizontal Profiles

Position Reports

Time Latitude Longitude Heading Altitude Ground
Speed
23-Dec-17 13:22 35.031105 -106.624150 314 5366ft 0kts
23-Dec-17 13:23 35.031105 -106.624150 314 5366ft 0kts
23-Dec-17 13:24 35.031105 -106.624150 314 5366ft 0kts
23-Dec-17 13:25 35.031105 -106.624150 314 5366ft 0kts
23-Dec-17 13:26 35.031105 -106.624150 314 5366ft 0kts
23-Dec-17 13:27 35.031105 -106.624150 314 5366ft 0kts
23-Dec-17 13:28 35.031105 -106.624150 314 5366ft 0kts
23-Dec-17 13:29 35.031105 -106.624150 314 5366ft 0kts
23-Dec-17 13:30 35.031105 -106.624150 314 5366ft 0kts
23-Dec-17 13:31 35.031105 -106.624150 314 5365ft 0kts
23-Dec-17 13:32 35.031105 -106.624150 314 5365ft 0kts
23-Dec-17 13:33 35.031105 -106.624150 314 5365ft 0kts
23-Dec-17 13:34 35.031105 -106.624150 314 5365ft 0kts
23-Dec-17 13:35 35.030777 -106.623696 278 5365ft 2kts
23-Dec-17 13:36 35.031102 -106.623117 224 5365ft 2kts
23-Dec-17 13:37 35.031225 -106.622969 224 5365ft 0kts
23-Dec-17 13:38 35.031225 -106.622969 224 5365ft 0kts
23-Dec-17 13:39 35.030808 -106.622956 163 5365ft 6kts
23-Dec-17 13:40 35.029441 -106.624017 225 5365ft 5kts
23-Dec-17 13:41 35.028188 -106.625543 224 5365ft 10kts
23-Dec-17 13:42 35.025928 -106.628269 224 5365ft 17kts
23-Dec-17 13:43 35.022592 -106.630601 89 5365ft 13kts
23-Dec-17 13:44 35.046145 -106.600887 54 6390ft 197kts
23-Dec-17 13:45 35.028279 -106.543426 145 8120ft 235kts
23-Dec-17 13:46 34.962438 -106.511231 182 8983ft 267kts
23-Dec-17 13:47 34.887492 -106.514887 181 11093ft 284kts
23-Dec-17 13:48 34.805952 -106.524250 204 12986ft 335kts
23-Dec-17 13:49 34.756937 -106.621005 253 17212ft 346kts
23-Dec-17 13:50 34.721509 -106.733372 250 19924ft 367kts
23-Dec-17 13:51 34.677852 -106.848318 248 22568ft 383kts
23-Dec-17 13:52 34.631575 -106.966899 248 24881ft 398kts
23-Dec-17 13:53 34.588216 -107.092326 257 26880ft 409kts
23-Dec-17 13:54 34.556301 -107.226652 258 28714ft 422kts
23-Dec-17 13:55 34.522363 -107.365251 257 30297ft 436kts
23-Dec-17 13:56 34.487100 -107.506205 258 32248ft 437kts
23-Dec-17 13:57 34.451893 -107.645846 258 34298ft 434kts
23-Dec-17 13:58 34.432424 -107.786233 273 36008ft 421kts
23-Dec-17 13:59 34.431724 -107.926748 273 36001ft 419kts
23-Dec-17 14:00 34.431255 -108.067842 273 36000ft 418kts
23-Dec-17 14:01 34.430697 -108.208376 273 35998ft 418kts
23-Dec-17 14:02 34.429993 -108.348930 273 35996ft 418kts
23-Dec-17 14:03 34.429125 -108.489940 273 35995ft 418kts
23-Dec-17 14:04 34.428106 -108.629765 273 36008ft 417kts
23-Dec-17 14:05 34.426948 -108.767143 272 36030ft 418kts
23-Dec-17 14:06 34.425610 -108.907352 272 36029ft 417kts
23-Dec-17 14:07 34.424109 -109.047817 272 36027ft 417kts
23-Dec-17 14:08 34.407032 -109.186583 253 36032ft 430kts
23-Dec-17 14:09 34.362128 -109.320102 253 36024ft 429kts
23-Dec-17 14:10 34.317004 -109.453753 253 36023ft 429kts
23-Dec-17 14:11 34.271841 -109.586902 253 36017ft 429kts
23-Dec-17 14:12 34.234163 -109.697537 253 36006ft 430kts
23-Dec-17 14:13 34.190981 -109.823939 252 36021ft 442kts
23-Dec-17 14:14 34.148702 -109.947062 252 36057ft 441kts
23-Dec-17 14:15 34.119901 -110.030681 252 36057ft 441kts
23-Dec-17 14:16 34.069200 -110.165324 252 36056ft 442kts
23-Dec-17 14:17 34.021194 -110.301274 252 36055ft 441kts
23-Dec-17 14:18 33.973592 -110.437527 252 36054ft 441kts
23-Dec-17 14:19 33.926075 -110.573271 252 36053ft 441kts
23-Dec-17 14:20 33.878332 -110.709096 252 36054ft 442kts
23-Dec-17 14:21 33.837303 -110.825359 252 36053ft 442kts
23-Dec-17 14:22 33.795434 -110.943557 252 36052ft 442kts
23-Dec-17 14:23 33.747411 -111.078597 252 36051ft 442kts
23-Dec-17 14:24 33.699503 -111.212728 252 36049ft 442kts
23-Dec-17 14:25 33.651112 -111.347650 252 36022ft 442kts
23-Dec-17 14:26 33.602843 -111.481704 252 36022ft 442kts
23-Dec-17 14:27 33.554899 -111.614328 252 36019ft 442kts
23-Dec-17 14:28 33.506108 -111.748691 251 36002ft 443kts
23-Dec-17 14:29 33.457215 -111.882813 251 36001ft 443kts
23-Dec-17 14:30 33.429572 -112.015693 274 36007ft 422kts
23-Dec-17 14:31 33.432075 -112.154466 275 35999ft 422kts
23-Dec-17 14:32 33.435291 -112.292275 275 35992ft 398kts
23-Dec-17 14:33 33.438469 -112.423536 274 33267ft 400kts
23-Dec-17 14:34 33.441579 -112.557332 273 30281ft 406kts
23-Dec-17 14:35 33.444431 -112.687915 273 28306ft 399kts
23-Dec-17 14:36 33.447217 -112.818890 273 26477ft 388kts
23-Dec-17 14:37 33.457239 -112.944990 276 24692ft 376kts
23-Dec-17 14:38 33.467122 -113.067696 276 22950ft 367kts
23-Dec-17 14:39 33.476639 -113.187993 277 21241ft 359kts
23-Dec-17 14:40 33.485832 -113.305711 277 19570ft 352kts
23-Dec-17 14:41 33.494763 -113.421498 277 17930ft 346kts
23-Dec-17 14:42 33.503445 -113.535387 277 16322ft 342kts
23-Dec-17 14:43 33.511922 -113.648012 276 14739ft 338kts
23-Dec-17 14:44 33.519799 -113.753906 276 13274ft 335kts
23-Dec-17 14:45 33.527757 -113.862170 275 11490ft 331kts
23-Dec-17 14:46 33.535341 -113.966754 275 10316ft 294kts
23-Dec-17 14:47 33.541882 -114.057869 275 9890ft 270kts
23-Dec-17 14:48 33.551438 -114.141983 283 8996ft 254kts
23-Dec-17 14:49 33.562952 -114.225082 278 7886ft 251kts
23-Dec-17 14:50 33.571725 -114.306799 278 6313ft 250kts
23-Dec-17 14:51 33.579931 -114.386423 278 5881ft 219kts
23-Dec-17 14:52 33.586762 -114.453156 277 5979ft 186kts
23-Dec-17 14:53 33.592422 -114.508838 277 5247ft 172kts
23-Dec-17 14:54 33.605931 -114.560781 291 3639ft 159kts
23-Dec-17 14:55 33.616430 -114.610884 267 2134ft 155kts
23-Dec-17 14:56 33.616492 -114.658698 270 1489ft 142kts
23-Dec-17 14:57 33.616537 -114.705244 270 489ft 142kts
23-Dec-17 14:58 33.616601 -114.727219 263 408ft 7kts
23-Dec-17 14:59 33.615158 -114.725944 90 408ft 19kts
23-Dec-17 15:00 33.615123 -114.716343 89 408ft 27kts
23-Dec-17 15:01 33.614383 -114.714279 182 408ft 0kts

Navigation Log

Ident Type
Flight plan parsing failed, navigation log unavailable